Time;durP1;ratioP1;P1;durP2;ratioP2;P2;SDS_P1;SDS_P2;PMS_P1;PMS_P2;Temp;Humidity;BMP_temperature;BMP_pressure;BME280_temperature;BME280_humidity;BME280_pressure;Samples;Min_cycle;Max_cycle;Signal;HPM_P1;HPM_P2
2021/10/26 00:01:48;;;;;;;0.52;0.52;;;;;;;;;;5051992;28;20475;-56
2021/10/26 00:04:16;;;;;;;0.00;0.00;;;;;;;;;;5034882;28;21021;-55
2021/10/26 00:06:42;;;;;;;0.00;0.00;;;;;;;;;;5051450;28;20059;-54
2021/10/26 00:09:08;;;;;;;12.52;1.10;;;;;;;;;;5068020;28;20127;-54
2021/10/26 00:11:33;;;;;;;0.00;0.00;;;;;;;;;;5056826;28;20032;-55
2021/10/26 00:14:01;;;;;;;1.45;0.40;;;;;;;;;;5067496;28;20148;-56
2021/10/26 00:16:26;;;;;;;0.00;0.00;;;;;;;;;;5068437;28;20031;-57
2021/10/26 00:18:51;;;;;;;0.00;0.00;;;;;;;;;;5068108;28;20422;-54
2021/10/26 00:21:19;;;;;;;0.00;0.00;;;;;;;;;;5069236;28;21938;-55
2021/10/26 00:23:45;;;;;;;0.00;0.00;;;;;;;;;;5051491;28;20076;-55
2021/10/26 00:26:12;;;;;;;0.20;0.20;;;;;;;;;;5037416;28;20036;-56
2021/10/26 00:28:38;;;;;;;0.00;0.00;;;;;;;;;;5033873;28;20093;-55
2021/10/26 00:31:06;;;;;;;0.00;0.00;;;;;;;;;;5068825;28;20039;-56
2021/10/26 00:33:37;;;;;;;0.00;0.00;;;;;;;;;;5067409;28;20028;-56
2021/10/26 00:36:04;;;;;;;0.00;0.00;;;;;;;;;;5067963;28;20039;-56
2021/10/26 00:38:30;;;;;;;0.00;0.00;;;;;;;;;;5034576;28;20126;-56
2021/10/26 00:40:58;;;;;;;0.00;0.00;;;;;;;;;;5053804;28;21948;-57
2021/10/26 00:43:24;;;;;;;0.00;0.00;;;;;;;;;;5042118;28;20035;-55
2021/10/26 00:45:50;;;;;;;0.00;0.00;;;;;;;;;;5073457;28;20032;-56
2021/10/26 00:48:18;;;;;;;0.00;0.00;;;;;;;;;;5038924;28;20040;-56
2021/10/26 00:50:46;;;;;;;0.00;0.00;;;;;;;;;;5072367;28;20036;-56
2021/10/26 00:53:17;;;;;;;0.00;0.00;;;;;;;;;;5072141;28;20035;-56
2021/10/26 00:55:53;;;;;;;0.00;0.00;;;;;;;;;;5072813;28;20039;-57
2021/10/26 00:58:21;;;;;;;0.30;0.30;;;;;;;;;;5071743;28;20101;-56
2021/10/26 01:00:49;;;;;;;0.00;0.00;;;;;;;;;;5072270;28;20031;-57
2021/10/26 01:03:17;;;;;;;0.00;0.00;;;;;;;;;;5056609;28;20062;-57
2021/10/26 01:05:45;;;;;;;2.10;1.05;;;;;;;;;;5058642;28;20475;-57
2021/10/26 01:08:12;;;;;;;0.45;0.45;;;;;;;;;;5056410;28;20028;-57
2021/10/26 01:10:38;;;;;;;0.00;0.00;;;;;;;;;;5059246;28;20063;-56
2021/10/26 01:13:08;;;;;;;1.10;0.95;;;;;;;;;;5071372;28;20110;-58
2021/10/26 01:15:36;;;;;;;0.40;0.40;;;;;;;;;;5072552;28;20032;-56
2021/10/26 01:18:07;;;;;;;1.10;1.10;;;;;;;;;;5052530;28;20594;-58
2021/10/26 01:20:32;;;;;;;0.55;0.55;;;;;;;;;;5071143;28;20541;-59
2021/10/26 01:23:00;;;;;;;2.25;2.05;;;;;;;;;;5034331;28;20032;-56
2021/10/26 01:25:29;;;;;;;2.80;2.60;;;;;;;;;;5070840;28;20032;-57
2021/10/26 01:27:54;;;;;;;1.13;1.08;;;;;;;;;;5053812;28;20035;-56
2021/10/26 01:30:25;;;;;;;2.00;1.27;;;;;;;;;;5050997;28;20840;-56
2021/10/26 01:32:54;;;;;;;2.90;1.42;;;;;;;;;;5052414;28;20141;-56
2021/10/26 01:35:21;;;;;;;0.22;0.22;;;;;;;;;;5050477;28;20474;-57
2021/10/26 01:38:06;;;;;;;4.88;2.13;;;;;;;;;;5071344;28;20114;-56
2021/10/26 01:40:51;;;;;;;0.10;0.10;;;;;;;;;;5072821;28;20051;-57
2021/10/26 01:43:37;;;;;;;0.93;0.93;;;;;;;;;;5056264;28;20121;-57
2021/10/26 01:46:20;;;;;;;;;;;;;;;;;;5074314;28;20081;-56
2021/10/26 01:49:07;;;;;;;1.75;1.15;;;;;;;;;;5068360;28;19972;-56
2021/10/26 01:51:52;;;;;;;0.50;0.50;;;;;;;;;;5054085;28;20047;-57
2021/10/26 01:54:40;;;;;;;0.00;0.00;;;;;;;;;;5071696;28;20047;-58
2021/10/26 01:57:27;;;;;;;0.22;0.22;;;;;;;;;;5060303;28;20047;-57
2021/10/26 02:00:14;;;;;;;1.17;0.85;;;;;;;;;;5071185;28;20589;-55
2021/10/26 02:03:01;;;;;;;1.13;1.08;;;;;;;;;;5068782;28;20503;-57
2021/10/26 02:05:45;;;;;;;1.08;0.75;;;;;;;;;;5070637;28;20097;-55
2021/10/26 02:08:31;;;;;;;0.57;0.57;;;;;;;;;;5056258;28;20096;-57
2021/10/26 02:11:18;;;;;;;0.73;0.73;;;;;;;;;;5045560;28;20463;-56
2021/10/26 02:14:02;;;;;;;0.35;0.35;;;;;;;;;;5067778;28;20055;-57
2021/10/26 02:16:45;;;;;;;2.40;1.85;;;;;;;;;;5054061;28;20076;-57
2021/10/26 02:19:32;;;;;;;0.20;0.20;;;;;;;;;;5070107;28;20203;-58
2021/10/26 02:22:19;;;;;;;4.13;1.90;;;;;;;;;;5067674;28;20097;-58
2021/10/26 02:25:06;;;;;;;0.80;0.80;;;;;;;;;;5054966;28;20092;-57
2021/10/26 02:27:52;;;;;;;1.15;1.08;;;;;;;;;;5068495;28;20054;-57
2021/10/26 02:30:37;;;;;;;1.25;1.17;;;;;;;;;;5070079;28;20089;-58
2021/10/26 02:33:21;;;;;;;0.65;0.25;;;;;;;;;;5067686;28;20042;-57
2021/10/26 02:36:08;;;;;;;0.10;0.10;;;;;;;;;;5069983;28;20066;-57
2021/10/26 02:38:52;;;;;;;1.50;1.40;;;;;;;;;;5072976;28;20090;-56
2021/10/26 02:41:39;;;;;;;1.27;1.00;;;;;;;;;;5054523;28;20059;-56
2021/10/26 02:44:24;;;;;;;0.20;0.20;;;;;;;;;;5066755;28;20050;-56
2021/10/26 02:47:10;;;;;;;0.63;0.63;;;;;;;;;;5054175;28;20665;-58
2021/10/26 02:49:57;;;;;;;1.08;1.08;;;;;;;;;;5070335;28;20047;-57
2021/10/26 02:52:41;;;;;;;0.17;0.17;;;;;;;;;;5054335;28;20082;-57
2021/10/26 02:55:28;;;;;;;0.20;0.20;;;;;;;;;;5067367;28;20062;-58
2021/10/26 02:58:17;;;;;;;1.55;1.45;;;;;;;;;;5054536;28;20561;-57
2021/10/26 03:01:02;;;;;;;1.13;1.13;;;;;;;;;;5061258;28;20054;-58
2021/10/26 03:03:51;;;;;;;1.48;1.38;;;;;;;;;;5069270;28;20117;-57
2021/10/26 03:06:35;;;;;;;0.82;0.82;;;;;;;;;;5071129;28;20121;-56
2021/10/26 03:09:19;;;;;;;0.13;0.13;;;;;;;;;;5069182;28;20099;-57
2021/10/26 03:12:03;;;;;;;7.38;1.10;;;;;;;;;;5069499;28;20055;-57
2021/10/26 03:14:47;;;;;;;2.28;1.13;;;;;;;;;;5071774;28;22424;-58
2021/10/26 03:17:31;;;;;;;0.40;0.40;;;;;;;;;;5068414;28;20055;-57
2021/10/26 03:20:17;;;;;;;0.13;0.13;;;;;;;;;;5070896;28;20112;-57
2021/10/26 03:23:02;;;;;;;0.77;0.77;;;;;;;;;;5069218;28;20096;-58
2021/10/26 03:25:46;;;;;;;3.92;2.70;;;;;;;;;;5071818;28;20043;-57
2021/10/26 03:28:33;;;;;;;1.63;1.55;;;;;;;;;;5051942;28;20066;-58
2021/10/26 03:31:19;;;;;;;0.25;0.25;;;;;;;;;;5074964;28;20233;-56
2021/10/26 03:34:03;;;;;;;0.88;0.88;;;;;;;;;;5055979;28;20079;-58
2021/10/26 03:36:43;;;;;;;2.30;1.10;;;;;;;;;;5056437;28;20035;-59
2021/10/26 03:39:13;;;;;;;0.40;0.40;;;;;;;;;;5069914;28;20379;-58
2021/10/26 03:41:42;;;;;;;1.35;1.35;;;;;;;;;;5054832;28;20055;-57
2021/10/26 03:44:07;;;;;;;0.73;0.73;;;;;;;;;;5036052;28;20040;-57
2021/10/26 03:46:34;;;;;;;0.90;0.75;;;;;;;;;;5071478;28;20518;-57
2021/10/26 03:49:02;;;;;;;0.98;0.98;;;;;;;;;;5055374;28;20119;-58
2021/10/26 03:51:33;;;;;;;1.48;0.98;;;;;;;;;;5041869;28;20121;-57
2021/10/26 03:53:58;;;;;;;3.63;2.28;;;;;;;;;;5040757;28;20058;-56
2021/10/26 03:56:27;;;;;;;0.43;0.43;;;;;;;;;;5074234;28;20955;-56
2021/10/26 03:58:55;;;;;;;0.55;0.45;;;;;;;;;;5056813;28;20047;-56
2021/10/26 04:01:20;;;;;;;1.38;0.65;;;;;;;;;;5054405;28;20024;-58
2021/10/26 04:03:51;;;;;;;0.68;0.68;;;;;;;;;;5056716;28;20067;-57
2021/10/26 04:06:24;;;;;;;3.47;1.30;;;;;;;;;;5057797;28;20392;-58
2021/10/26 04:08:55;;;;;;;0.30;0.30;;;;;;;;;;5054816;28;20109;-58
2021/10/26 04:11:23;;;;;;;0.88;0.88;;;;;;;;;;5057416;28;20043;-57
2021/10/26 04:13:51;;;;;;;0.15;0.15;;;;;;;;;;5072650;28;20147;-58
2021/10/26 04:16:17;;;;;;;0.03;0.03;;;;;;;;;;5071463;28;20043;-57
2021/10/26 04:18:45;;;;;;;0.47;0.47;;;;;;;;;;5041187;28;20121;-55
2021/10/26 04:21:17;;;;;;;4.38;2.35;;;;;;;;;;5058529;28;20035;-57
2021/10/26 04:23:42;;;;;;;2.30;1.73;;;;;;;;;;5072882;28;20046;-57
2021/10/26 04:26:07;;;;;;;0.82;0.82;;;;;;;;;;5059343;28;20031;-57
2021/10/26 04:28:38;;;;;;;1.40;1.30;;;;;;;;;;5055519;28;20040;-57
2021/10/26 04:31:06;;;;;;;0.30;0.30;;;;;;;;;;5078072;28;20040;-58
2021/10/26 04:33:37;;;;;;;1.13;1.13;;;;;;;;;;5036893;28;21146;-58
2021/10/26 04:36:02;;;;;;;1.08;1.02;;;;;;;;;;5042809;28;21333;-58
2021/10/26 04:38:27;;;;;;;0.20;0.20;;;;;;;;;;5075179;28;20084;-58
2021/10/26 04:40:57;;;;;;;0.00;0.00;;;;;;;;;;5076166;28;20031;-57
2021/10/26 04:43:24;;;;;;;1.10;0.43;;;;;;;;;;5077228;28;20148;-56
2021/10/26 04:45:51;;;;;;;0.10;0.10;;;;;;;;;;5042090;28;20039;-58
2021/10/26 04:48:17;;;;;;;0.00;0.00;;;;;;;;;;5043361;28;20132;-58
2021/10/26 04:50:42;;;;;;;0.38;0.38;;;;;;;;;;5077314;28;20026;-58
2021/10/26 04:53:10;;;;;;;0.45;0.45;;;;;;;;;;5059112;28;20043;-58
2021/10/26 04:55:36;;;;;;;0.47;0.47;;;;;;;;;;5059145;28;20035;-58
2021/10/26 04:58:03;;;;;;;0.43;0.38;;;;;;;;;;5042070;28;20770;-58
2021/10/26 05:00:30;;;;;;;0.65;0.65;;;;;;;;;;5040169;28;20110;-58
2021/10/26 05:02:55;;;;;;;0.08;0.08;;;;;;;;;;5055981;28;20070;-57
2021/10/26 05:05:21;;;;;;;0.20;0.20;;;;;;;;;;5072356;28;20024;-58
2021/10/26 05:07:50;;;;;;;2.45;1.73;;;;;;;;;;5056166;28;20112;-57
2021/10/26 05:10:15;;;;;;;0.00;0.00;;;;;;;;;;5076275;28;20514;-59
2021/10/26 05:12:43;;;;;;;0.30;0.30;;;;;;;;;;5060029;28;20162;-58
2021/10/26 05:15:13;;;;;;;0.00;0.00;;;;;;;;;;5060922;28;20028;-57
2021/10/26 05:17:40;;;;;;;1.80;1.70;;;;;;;;;;5058399;28;20028;-57
2021/10/26 05:20:07;;;;;;;0.00;0.00;;;;;;;;;;5075239;28;20048;-58
2021/10/26 05:22:32;;;;;;;0.45;0.45;;;;;;;;;;5076888;28;20036;-57
2021/10/26 05:25:00;;;;;;;4.03;1.63;;;;;;;;;;5025323;28;20042;-57
2021/10/26 05:27:27;;;;;;;4.18;1.17;;;;;;;;;;5057958;28;20057;-58
2021/10/26 05:29:54;;;;;;;0.68;0.68;;;;;;;;;;5042429;28;20153;-56
2021/10/26 05:32:24;;;;;;;1.95;0.77;;;;;;;;;;5058939;28;20130;-57
2021/10/26 05:34:52;;;;;;;0.60;0.60;;;;;;;;;;5073001;28;20040;-56
2021/10/26 05:37:22;;;;;;;0.90;0.50;;;;;;;;;;5072873;28;20125;-56
2021/10/26 05:39:50;;;;;;;0.63;0.63;;;;;;;;;;5043976;28;20533;-57
2021/10/26 05:42:18;;;;;;;1.00;0.90;;;;;;;;;;5056902;28;20036;-57
2021/10/26 05:44:44;;;;;;;0.98;0.98;;;;;;;;;;5041394;28;20031;-58
2021/10/26 05:47:10;;;;;;;1.17;1.08;;;;;;;;;;5055217;28;20039;-57
2021/10/26 05:49:36;;;;;;;4.15;1.73;;;;;;;;;;5052206;28;21896;-56
2021/10/26 05:52:04;;;;;;;0.80;0.80;;;;;;;;;;5075537;28;20143;-57
2021/10/26 05:54:32;;;;;;;5.97;1.63;;;;;;;;;;5073163;28;20038;-57
2021/10/26 05:56:57;;;;;;;0.52;0.52;;;;;;;;;;5055325;28;20032;-58
2021/10/26 05:59:25;;;;;;;0.60;0.60;;;;;;;;;;5060519;28;20271;-56
2021/10/26 06:01:52;;;;;;;0.63;0.63;;;;;;;;;;5057626;28;20115;-59
2021/10/26 06:04:20;;;;;;;0.55;0.55;;;;;;;;;;5039357;28;20043;-58
2021/10/26 06:06:50;;;;;;;0.55;0.40;;;;;;;;;;5073212;28;20020;-57
2021/10/26 06:09:17;;;;;;;3.20;1.75;;;;;;;;;;5022914;28;20199;-56
2021/10/26 06:11:45;;;;;;;0.25;0.25;;;;;;;;;;5073923;28;20020;-58
2021/10/26 06:14:10;;;;;;;0.10;0.10;;;;;;;;;;5056898;28;20042;-56
2021/10/26 06:16:41;;;;;;;0.17;0.17;;;;;;;;;;5074371;28;20016;-56
2021/10/26 06:19:09;;;;;;;0.90;0.90;;;;;;;;;;5068879;28;22103;-56
2021/10/26 06:21:35;;;;;;;0.08;0.08;;;;;;;;;;5052735;28;20061;-56
2021/10/26 06:24:01;;;;;;;1.35;1.13;;;;;;;;;;5053196;28;20147;-56
2021/10/26 06:26:27;;;;;;;7.07;0.95;;;;;;;;;;5035580;28;20032;-57
2021/10/26 06:28:55;;;;;;;0.40;0.40;;;;;;;;;;5052370;28;20024;-57
2021/10/26 06:31:27;;;;;;;0.25;0.25;;;;;;;;;;5053255;28;20028;-57
2021/10/26 06:33:56;;;;;;;0.40;0.40;;;;;;;;;;5035316;28;20028;-57
2021/10/26 06:36:21;;;;;;;0.60;0.60;;;;;;;;;;5056466;28;20073;-57
2021/10/26 06:38:47;;;;;;;0.15;0.15;;;;;;;;;;5069566;28;20038;-58
2021/10/26 06:41:15;;;;;;;1.88;1.67;;;;;;;;;;5034998;28;20070;-58
2021/10/26 06:43:43;;;;;;;1.65;1.55;;;;;;;;;;5052728;28;21992;-58
2021/10/26 06:46:08;;;;;;;0.90;0.68;;;;;;;;;;5054554;28;20031;-57
2021/10/26 06:48:34;;;;;;;0.50;0.50;;;;;;;;;;5052571;28;20021;-58
2021/10/26 06:51:04;;;;;;;1.00;0.82;;;;;;;;;;5051999;28;20024;-57
2021/10/26 06:53:32;;;;;;;0.60;0.60;;;;;;;;;;5054787;28;20036;-56
2021/10/26 06:56:03;;;;;;;0.65;0.65;;;;;;;;;;5035289;28;20031;-58
2021/10/26 06:58:31;;;;;;;1.60;1.20;;;;;;;;;;5050686;28;20036;-58
2021/10/26 07:00:59;;;;;;;0.70;0.70;;;;;;;;;;5069439;28;20139;-57
2021/10/26 07:03:27;;;;;;;1.48;1.48;;;;;;;;;;5049187;28;20036;-57
2021/10/26 07:05:54;;;;;;;1.55;0.73;;;;;;;;;;5050555;28;20031;-59
2021/10/26 07:08:20;;;;;;;0.80;0.80;;;;;;;;;;5044274;28;20400;-57
2021/10/26 07:10:48;;;;;;;1.65;0.43;;;;;;;;;;5034004;28;20032;-57
2021/10/26 07:13:16;;;;;;;1.20;0.90;;;;;;;;;;5051253;28;20032;-57
2021/10/26 07:15:42;;;;;;;0.63;0.63;;;;;;;;;;5050945;28;20020;-57
2021/10/26 07:18:08;;;;;;;0.82;0.82;;;;;;;;;;5036160;28;20686;-58
2021/10/26 07:20:34;;;;;;;0.45;0.45;;;;;;;;;;5033054;28;20028;-58
2021/10/26 07:22:59;;;;;;;0.65;0.65;;;;;;;;;;5055330;28;21133;-57
2021/10/26 07:25:25;;;;;;;0.52;0.52;;;;;;;;;;5057352;28;20027;-57
2021/10/26 07:27:54;;;;;;;0.77;0.77;;;;;;;;;;5070500;28;22386;-56
2021/10/26 07:30:19;;;;;;;2.47;1.10;;;;;;;;;;5055732;28;20024;-57
2021/10/26 07:32:47;;;;;;;0.80;0.80;;;;;;;;;;5056664;28;20039;-56
2021/10/26 07:35:17;;;;;;;0.85;0.85;;;;;;;;;;5073379;28;20514;-57
2021/10/26 07:37:47;;;;;;;3.70;1.08;;;;;;;;;;5071949;28;20028;-57
2021/10/26 07:40:13;;;;;;;1.27;0.75;;;;;;;;;;5073557;28;20115;-58
2021/10/26 07:42:41;;;;;;;0.30;0.30;;;;;;;;;;5055665;28;20039;-58
2021/10/26 07:45:13;;;;;;;0.93;0.88;;;;;;;;;;5056458;28;20131;-57
2021/10/26 07:47:38;;;;;;;0.20;0.20;;;;;;;;;;5057693;28;20032;-58
2021/10/26 07:50:05;;;;;;;2.35;1.88;;;;;;;;;;5055719;28;20020;-58
2021/10/26 07:52:34;;;;;;;1.70;1.60;;;;;;;;;;5057142;28;20039;-57
2021/10/26 07:55:00;;;;;;;0.47;0.47;;;;;;;;;;5077150;28;20106;-56
2021/10/26 07:57:31;;;;;;;0.10;0.10;;;;;;;;;;5042352;28;20077;-57
2021/10/26 07:59:59;;;;;;;0.50;0.50;;;;;;;;;;5077825;28;20107;-57
2021/10/26 08:02:25;;;;;;;1.15;1.00;;;;;;;;;;5076912;28;20060;-57
2021/10/26 08:04:56;;;;;;;0.28;0.28;;;;;;;;;;5076179;28;20042;-56
2021/10/26 08:07:25;;;;;;;1.42;1.33;;;;;;;;;;5075245;28;20648;-57
2021/10/26 08:09:53;;;;;;;0.20;0.20;;;;;;;;;;5059898;28;20036;-57
2021/10/26 08:12:20;;;;;;;0.63;0.63;;;;;;;;;;5077906;28;20072;-57
2021/10/26 08:14:45;;;;;;;0.40;0.40;;;;;;;;;;5041944;28;20027;-57
2021/10/26 08:17:18;;;;;;;1.17;1.15;;;;;;;;;;5077706;28;20064;-57
2021/10/26 08:19:47;;;;;;;0.95;0.80;;;;;;;;;;5056444;28;20047;-58
2021/10/26 08:25:32;;;;;;;0.65;0.55;;;;;;;;;;5066260;28;20035;-58
2021/10/26 08:28:00;;;;;;;1.58;1.33;;;;;;;;;;5075892;28;20027;-58
2021/10/26 08:35:16;;;;;;;0.22;0.22;;;;;;;;;;5075157;28;20043;-58
2021/10/26 08:36:58;;;;;;;4.40;0.70;;;;;;;;;;5035483;28;20082;-57
2021/10/26 08:39:24;;;;;;;0.65;0.65;;;;;;;;;;5074819;28;20099;-57
2021/10/26 08:41:58;;;;;;;8.75;1.08;;;;;;;;;;5057657;28;21424;-57
2021/10/26 08:44:24;;;;;;;0.73;0.73;;;;;;;;;;5075230;28;20058;-58
2021/10/26 08:46:52;;;;;;;0.05;0.05;;;;;;;;;;5075965;28;20057;-58
2021/10/26 08:49:20;;;;;;;3.40;1.55;;;;;;;;;;5074359;28;20078;-57
2021/10/26 08:51:52;;;;;;;1.85;0.47;;;;;;;;;;5076565;28;20023;-58
2021/10/26 08:54:18;;;;;;;2.35;1.60;;;;;;;;;;5043401;28;20051;-58
2021/10/26 08:56:47;;;;;;;0.40;0.40;;;;;;;;;;5061434;28;20023;-58
2021/10/26 08:59:17;;;;;;;1.88;1.02;;;;;;;;;;5057896;28;20118;-58
2021/10/26 09:01:46;;;;;;;0.40;0.40;;;;;;;;;;5043213;28;20027;-59
2021/10/26 09:04:16;;;;;;;1.95;0.95;;;;;;;;;;5074959;28;20094;-57
2021/10/26 09:06:59;;;;;;;0.52;0.52;;;;;;;;;;5078902;28;20117;-58
2021/10/26 09:09:57;;;;;;;1.70;1.23;;;;;;;;;;5058373;28;20024;-58
2021/10/26 09:17:45;;;;;;;0.08;0.08;;;;;;;;;;5057977;28;20071;-57
2021/10/26 09:20:13;;;;;;;3.72;0.93;;;;;;;;;;5037991;28;20143;-58
2021/10/26 09:22:45;;;;;;;0.20;0.20;;;;;;;;;;5034405;28;20098;-58
2021/10/26 09:25:14;;;;;;;1.00;0.90;;;;;;;;;;5034548;28;20060;-58
2021/10/26 09:27:40;;;;;;;0.20;0.20;;;;;;;;;;5031561;28;20029;-58
2021/10/26 09:30:12;;;;;;;1.75;0.30;;;;;;;;;;5027393;28;20037;-58
2021/10/26 09:32:37;;;;;;;0.38;0.35;;;;;;;;;;5049802;28;20484;-60
2021/10/26 09:35:05;;;;;;;0.22;0.22;;;;;;;;;;5022865;28;20024;-58
2021/10/26 09:37:38;;;;;;;0.22;0.22;;;;;;;;;;5033093;28;20025;-59
2021/10/26 09:40:04;;;;;;;0.52;0.52;;;;;;;;;;5033667;28;20036;-57
2021/10/26 09:46:10;;;;;;;0.73;0.73;;;;;;;;;;5035020;28;20062;-58
2021/10/26 09:48:36;;;;;;;1.15;0.80;;;;;;;;;;5031029;28;20610;-59
2021/10/26 09:51:08;;;;;;;1.02;0.65;;;;;;;;;;5034546;28;20131;-59
2021/10/26 09:53:34;;;;;;;1.38;0.90;;;;;;;;;;5034545;28;20029;-59
2021/10/26 09:56:12;;;;;;;1.00;0.82;;;;;;;;;;5048901;28;20033;-57
2021/10/26 09:58:38;;;;;;;0.45;0.20;;;;;;;;;;5033400;28;20128;-59
2021/10/26 10:01:05;;;;;;;1.48;0.30;;;;;;;;;;5012460;28;20036;-59
2021/10/26 10:03:35;;;;;;;0.00;0.00;;;;;;;;;;5032589;28;20024;-59
2021/10/26 10:06:04;;;;;;;0.20;0.20;;;;;;;;;;5048127;28;20033;-59
2021/10/26 10:08:37;;;;;;;0.75;0.40;;;;;;;;;;5028641;28;20025;-59
2021/10/26 10:11:10;;;;;;;0.57;0.52;;;;;;;;;;5029942;28;20048;-58
2021/10/26 10:17:15;;;;;;;0.25;0.25;;;;;;;;;;5033455;28;20020;-58
2021/10/26 10:19:41;;;;;;;0.77;0.77;;;;;;;;;;5055808;28;20070;-58
2021/10/26 10:25:33;;;;;;;0.10;0.10;;;;;;;;;;5073674;28;20074;-59
2021/10/26 10:28:01;;;;;;;0.43;0.43;;;;;;;;;;5027721;28;20127;-59
2021/10/26 10:30:30;;;;;;;0.03;0.03;;;;;;;;;;5072359;28;20058;-59
2021/10/26 10:32:55;;;;;;;0.80;0.10;;;;;;;;;;5036921;28;20031;-59
2021/10/26 10:35:25;;;;;;;0.60;0.60;;;;;;;;;;5072538;28;20024;-59
2021/10/26 10:37:51;;;;;;;0.17;0.17;;;;;;;;;;5069670;28;20442;-59
2021/10/26 10:40:22;;;;;;;0.00;0.00;;;;;;;;;;5039571;28;20143;-58
2021/10/26 10:42:51;;;;;;;0.43;0.43;;;;;;;;;;5067619;28;20089;-59
2021/10/26 10:45:31;;;;;;;0.70;0.70;;;;;;;;;;5054897;28;20044;-59
2021/10/26 10:47:57;;;;;;;0.22;0.22;;;;;;;;;;5054387;28;20385;-59
2021/10/26 10:50:27;;;;;;;0.73;0.65;;;;;;;;;;5055478;28;20082;-59
2021/10/26 10:53:07;;;;;;;0.38;0.38;;;;;;;;;;5055793;28;20038;-59
2021/10/26 10:55:33;;;;;;;0.28;0.28;;;;;;;;;;5069872;28;20248;-59
2021/10/26 11:01:37;;;;;;;1.27;1.13;;;;;;;;;;5072565;28;20038;-59
2021/10/26 11:04:20;;;;;;;0.47;0.43;;;;;;;;;;5036668;28;20028;-59
2021/10/26 11:07:16;;;;;;;0.90;0.77;;;;;;;;;;5058870;28;20032;-59
2021/10/26 11:09:45;;;;;;;0.20;0.20;;;;;;;;;;5073432;28;20032;-58
2021/10/26 11:12:20;;;;;;;0.10;0.10;;;;;;;;;;5073606;28;20028;-58
2021/10/26 11:14:52;;;;;;;1.02;0.43;;;;;;;;;;5054370;28;20032;-58
2021/10/26 11:17:22;;;;;;;;;;;;;;;;;;5054304;28;20039;-58
2021/10/26 11:20:20;;;;;;;0.10;0.10;;;;;;;;;;5059814;28;19924;-59
2021/10/26 11:22:45;;;;;;;4.50;0.75;;;;;;;;;;5001704;28;20507;-58
2021/10/26 11:25:20;;;;;;;0.38;0.38;;;;;;;;;;5053547;28;20154;-58
2021/10/26 11:27:46;;;;;;;0.80;0.55;;;;;;;;;;5071791;28;20036;-60
2021/10/26 11:33:58;;;;;;;0.82;0.82;;;;;;;;;;5026866;28;20038;-60
2021/10/26 11:36:33;;;;;;;0.30;0.30;;;;;;;;;;5054980;28;20533;-59
2021/10/26 11:39:00;;;;;;;0.10;0.10;;;;;;;;;;5053669;28;20079;-59
2021/10/26 11:41:29;;;;;;;0.20;0.20;;;;;;;;;;5070593;28;20129;-58
2021/10/26 11:43:58;;;;;;;0.32;0.32;;;;;;;;;;5069788;28;20140;-58
2021/10/26 11:46:46;;;;;;;0.63;0.63;;;;;;;;;;5055084;28;20035;-60
2021/10/26 11:49:18;;;;;;;0.17;0.17;;;;;;;;;;5070594;28;20031;-60
2021/10/26 11:51:51;;;;;;;0.03;0.03;;;;;;;;;;5054272;28;20036;-59
2021/10/26 11:57:56;;;;;;;1.55;0.70;;;;;;;;;;5072309;28;20402;-59
2021/10/26 12:00:26;;;;;;;0.40;0.40;;;;;;;;;;5055534;28;20149;-60
2021/10/26 12:02:54;;;;;;;6.03;0.52;;;;;;;;;;5055109;28;20024;-59
2021/10/26 12:05:20;;;;;;;0.88;0.35;;;;;;;;;;5072369;28;20417;-60
2021/10/26 12:07:52;;;;;;;2.75;0.52;;;;;;;;;;5039935;28;20040;-60
2021/10/26 12:10:24;;;;;;;0.95;0.60;;;;;;;;;;5071056;28;20577;-60
2021/10/26 12:12:50;;;;;;;0.30;0.30;;;;;;;;;;5056161;28;20085;-60
2021/10/26 12:15:18;;;;;;;0.45;0.32;;;;;;;;;;5054718;28;20043;-60
2021/10/26 12:18:14;;;;;;;0.10;0.10;;;;;;;;;;5052479;28;20139;-59
2021/10/26 12:20:40;;;;;;;0.32;0.32;;;;;;;;;;5047497;28;20059;-60
2021/10/26 12:23:08;;;;;;;0.10;0.10;;;;;;;;;;5052355;28;20531;-59
2021/10/26 12:25:40;;;;;;;0.88;0.43;;;;;;;;;;5068267;28;20128;-59
2021/10/26 12:28:08;;;;;;;0.30;0.30;;;;;;;;;;5034491;28;22009;-59
2021/10/26 12:30:35;;;;;;;1.05;0.57;;;;;;;;;;5053393;28;20027;-60
2021/10/26 12:33:08;;;;;;;0.52;0.47;;;;;;;;;;5051254;28;20135;-59
2021/10/26 12:35:45;;;;;;;3.10;1.02;;;;;;;;;;5053207;28;20517;-61
2021/10/26 12:38:16;;;;;;;1.27;1.13;;;;;;;;;;5053484;28;20676;-59
2021/10/26 12:40:46;;;;;;;0.30;0.30;;;;;;;;;;5054769;28;20028;-58
2021/10/26 12:43:12;;;;;;;1.63;0.43;;;;;;;;;;5052152;28;20046;-58
2021/10/26 12:45:40;;;;;;;8.50;3.00;;;;;;;;;;5056427;28;20020;-59
2021/10/26 12:48:08;;;;;;;13.73;6.30;;;;;;;;;;5056063;28;20415;-58
2021/10/26 12:50:51;;;;;;;17.73;6.95;;;;;;;;;;5056162;28;20024;-59
2021/10/26 12:56:29;;;;;;;28.90;7.53;;;;;;;;;;5056197;28;20047;-58
2021/10/26 12:59:20;;;;;;;17.98;7.05;;;;;;;;;;5050598;28;20143;-58
2021/10/26 13:01:51;;;;;;;20.55;7.60;;;;;;;;;;5058549;28;20062;-58
2021/10/26 13:04:28;;;;;;;24.77;8.00;;;;;;;;;;5034696;28;20036;-59
2021/10/26 13:07:21;;;;;;;17.55;6.57;;;;;;;;;;5054716;28;20119;-60
2021/10/26 13:09:49;;;;;;;17.50;6.75;;;;;;;;;;5069329;28;20032;-60
2021/10/26 13:12:27;;;;;;;11.88;5.70;;;;;;;;;;5057809;28;20074;-59
2021/10/26 13:14:57;;;;;;;14.30;5.55;;;;;;;;;;5056165;28;20110;-59
2021/10/26 13:17:47;;;;;;;20.85;5.75;;;;;;;;;;5057201;28;20075;-59
2021/10/26 13:26:53;;;;;;;12.25;4.68;;;;;;;;;;5069425;28;20051;-59
2021/10/26 13:29:21;;;;;;;15.27;3.50;;;;;;;;;;5048131;28;20174;-58
2021/10/26 13:31:48;;;;;;;8.95;4.10;;;;;;;;;;5056444;28;20031;-59
2021/10/26 13:34:16;;;;;;;9.55;4.55;;;;;;;;;;5054593;28;20070;-59
2021/10/26 13:36:42;;;;;;;11.10;5.03;;;;;;;;;;5055123;28;20028;-59
2021/10/26 13:39:09;;;;;;;12.82;5.30;;;;;;;;;;5053653;28;20086;-59
2021/10/26 13:41:44;;;;;;;12.52;4.40;;;;;;;;;;5052875;28;20025;-58
2021/10/26 13:44:13;;;;;;;10.57;5.43;;;;;;;;;;5053341;28;20058;-58
2021/10/26 13:46:41;;;;;;;15.30;5.30;;;;;;;;;;5069983;28;21794;-59
2021/10/26 13:49:06;;;;;;;13.30;4.70;;;;;;;;;;5051023;28;20774;-60
2021/10/26 13:51:35;;;;;;;10.98;4.50;;;;;;;;;;5053528;28;20106;-59
2021/10/26 13:54:08;;;;;;;10.07;3.45;;;;;;;;;;5038120;28;20028;-59
2021/10/26 13:56:33;;;;;;;7.05;3.45;;;;;;;;;;5036888;28;20036;-59
2021/10/26 13:59:04;;;;;;;6.65;3.53;;;;;;;;;;5053866;28;20090;-59
2021/10/26 14:01:31;;;;;;;6.95;3.72;;;;;;;;;;5039249;28;20844;-60
2021/10/26 14:03:57;;;;;;;13.65;4.65;;;;;;;;;;5032066;28;20036;-61
2021/10/26 14:06:23;;;;;;;11.13;5.38;;;;;;;;;;5054341;28;20114;-59
2021/10/26 14:08:55;;;;;;;12.68;5.90;;;;;;;;;;5052794;28;20047;-59
2021/10/26 14:11:23;;;;;;;15.80;6.18;;;;;;;;;;5043875;28;20024;-61
2021/10/26 14:13:53;;;;;;;13.25;7.93;;;;;;;;;;5033005;28;20035;-58
2021/10/26 14:16:21;;;;;;;15.73;8.93;;;;;;;;;;5067915;28;20039;-58
2021/10/26 14:18:54;;;;;;;17.75;9.07;;;;;;;;;;5051708;28;20431;-59
2021/10/26 14:21:22;;;;;;;21.08;9.25;;;;;;;;;;5072811;28;20050;-59
2021/10/26 14:23:50;;;;;;;25.13;9.65;;;;;;;;;;5073546;28;20699;-59
2021/10/26 14:26:16;;;;;;;22.40;10.90;;;;;;;;;;5044435;28;20133;-58
2021/10/26 14:28:41;;;;;;;21.45;10.73;;;;;;;;;;5071531;28;20016;-60
2021/10/26 14:31:07;;;;;;;23.08;10.88;;;;;;;;;;5054562;28;20028;-59
2021/10/26 14:56:09;;;;;;;30.17;13.02;;;;;;;;;;5072378;28;20641;-60
2021/10/26 14:58:37;;;;;;;30.35;12.57;;;;;;;;;;5069314;28;20028;-60
2021/10/26 15:01:05;;;;;;;31.10;12.68;;;;;;;;;;5052969;28;20047;-60
2021/10/26 15:03:36;;;;;;;30.42;14.02;;;;;;;;;;5068554;28;21050;-60
2021/10/26 15:06:14;;;;;;;25.52;12.32;;;;;;;;;;5054423;28;20031;-59
2021/10/26 15:08:55;;;;;;;34.35;14.50;;;;;;;;;;5041245;28;20039;-59
2021/10/26 15:11:28;;;;;;;33.97;13.95;;;;;;;;;;5072345;28;20028;-59
2021/10/26 15:13:55;;;;;;;30.42;13.73;;;;;;;;;;5071285;28;20032;-60
2021/10/26 15:16:21;;;;;;;30.33;13.93;;;;;;;;;;5068563;28;20024;-58
2021/10/26 15:18:48;;;;;;;30.23;14.02;;;;;;;;;;5052100;28;20911;-60
2021/10/26 15:21:27;;;;;;;36.22;15.35;;;;;;;;;;5052354;28;20058;-60
2021/10/26 15:34:56;;;;;;;44.20;17.48;;;;;;;;;;5039367;28;20031;-60
2021/10/26 15:37:23;;;;;;;40.33;19.08;;;;;;;;;;5040204;28;20077;-60
2021/10/26 15:39:50;;;;;;;47.83;18.48;;;;;;;;;;5070587;28;20048;-60
2021/10/26 15:42:15;;;;;;;37.05;18.98;;;;;;;;;;5068521;28;20407;-59
2021/10/26 15:45:02;;;;;;;48.67;19.77;;;;;;;;;;5050487;28;20040;-59
2021/10/26 15:47:27;;;;;;;50.47;21.15;;;;;;;;;;5050230;28;20222;-59
2021/10/26 15:50:32;;;;;;;41.72;18.27;;;;;;;;;;5067576;28;20032;-60
2021/10/26 15:53:00;;;;;;;51.37;21.00;;;;;;;;;;5071497;28;20024;-59
2021/10/26 15:55:46;;;;;;;45.92;20.77;;;;;;;;;;5053880;28;20124;-60
2021/10/26 15:58:12;;;;;;;42.47;20.90;;;;;;;;;;5041301;28;20087;-60
2021/10/26 16:00:38;;;;;;;51.53;19.92;;;;;;;;;;5049036;28;20028;-59
2021/10/26 16:03:04;;;;;;;42.72;18.83;;;;;;;;;;5070089;28;20877;-60
2021/10/26 16:05:32;;;;;;;45.97;19.10;;;;;;;;;;5053360;28;20027;-60
2021/10/26 16:08:08;;;;;;;46.20;19.55;;;;;;;;;;5054984;28;20035;-61
2021/10/26 16:11:01;;;;;;;37.95;19.13;;;;;;;;;;5072292;28;20055;-60
2021/10/26 16:13:34;;;;;;;45.88;18.52;;;;;;;;;;5068442;28;20039;-61
2021/10/26 16:16:07;;;;;;;45.50;16.50;;;;;;;;;;5072716;28;20051;-60
2021/10/26 16:18:34;;;;;;;37.05;18.00;;;;;;;;;;5072547;28;20104;-59
2021/10/26 16:21:06;;;;;;;42.80;17.63;;;;;;;;;;5070356;28;20034;-59
2021/10/26 16:23:33;;;;;;;29.33;14.48;;;;;;;;;;5077004;28;20028;-61